createdAt,value
2023-01-20T00:01:27.889Z,47.63
2023-01-20T00:03:56.464Z,47.00
2023-01-20T00:06:25.512Z,49.93
2023-01-20T00:08:53.915Z,47.63
2023-01-20T00:11:21.719Z,41.10
2023-01-20T00:13:48.945Z,51.30
2023-01-20T00:16:16.211Z,39.37
2023-01-20T00:18:43.214Z,41.77
2023-01-20T00:21:13.386Z,37.37
2023-01-20T00:23:41.194Z,47.03
2023-01-20T00:26:10.613Z,46.20
2023-01-20T00:28:38.672Z,46.83
2023-01-20T00:31:26.913Z,43.33
2023-01-20T00:33:55.985Z,44.63
2023-01-20T00:36:25.182Z,45.77
2023-01-20T00:38:52.377Z,47.83
2023-01-20T00:41:20.262Z,41.10
2023-01-20T00:43:47.258Z,41.97
2023-01-20T00:46:14.838Z,44.87
2023-01-20T00:48:42.220Z,46.87
2023-01-20T00:51:10.355Z,40.50
2023-01-20T00:53:38.002Z,42.70
2023-01-20T00:56:06.090Z,42.17
2023-01-20T00:58:33.349Z,44.97
2023-01-20T01:01:01.036Z,34.40
2023-01-20T01:03:28.985Z,37.40
2023-01-20T01:06:07.025Z,41.97
2023-01-20T01:08:35.080Z,40.37
2023-01-20T01:11:02.860Z,36.97
2023-01-20T01:13:29.993Z,40.37
2023-01-20T01:15:57.330Z,40.00
2023-01-20T01:18:24.377Z,43.40
2023-01-20T01:20:51.615Z,36.63
2023-01-20T01:23:18.655Z,34.97
2023-01-20T01:25:45.951Z,33.97
2023-01-20T01:28:12.879Z,36.83
2023-01-20T01:30:40.221Z,39.83
2023-01-20T01:33:07.269Z,36.27
2023-01-20T01:35:34.498Z,37.00
2023-01-20T01:38:01.465Z,34.43
2023-01-20T01:40:28.675Z,35.73
2023-01-20T01:42:55.631Z,37.17
2023-01-20T01:45:25.709Z,35.33
2023-01-20T01:48:01.603Z,39.80
2023-01-20T01:50:39.019Z,32.93
2023-01-20T01:53:07.516Z,35.33
2023-01-20T01:55:39.548Z,33.37
2023-01-20T01:58:08.190Z,32.63
2023-01-20T02:00:35.466Z,34.13
2023-01-20T02:03:02.646Z,32.00
2023-01-20T02:05:31.170Z,32.97
2023-01-20T02:07:59.614Z,31.07
2023-01-20T02:10:27.134Z,34.60
2023-01-20T02:12:54.634Z,32.87
2023-01-20T02:15:27.823Z,32.73
2023-01-20T02:18:17.070Z,37.50
2023-01-20T02:21:04.684Z,37.77
2023-01-20T02:24:07.406Z,38.90
2023-01-20T02:26:53.814Z,40.30
2023-01-20T02:29:57.783Z,35.20
2023-01-20T02:32:46.065Z,30.80
2023-01-20T02:35:34.084Z,40.10
2023-01-20T02:38:10.586Z,34.73
2023-01-20T02:41:23.812Z,38.83
2023-01-20T02:44:04.106Z,40.50
2023-01-20T02:46:46.229Z,49.87
2023-01-20T02:49:44.660Z,41.97
2023-01-20T02:52:25.861Z,41.90
2023-01-20T02:54:56.594Z,43.27
2023-01-20T02:57:31.245Z,43.87
2023-01-20T03:00:07.754Z,45.53
2023-01-20T03:02:36.077Z,52.43
2023-01-20T03:05:17.806Z,43.77
2023-01-20T03:07:46.085Z,50.17
2023-01-20T03:10:17.374Z,40.87
2023-01-20T03:13:23.086Z,43.07
2023-01-20T03:16:00.625Z,39.67
2023-01-20T03:18:30.153Z,45.30
2023-01-20T03:20:59.411Z,39.97
2023-01-20T03:23:29.363Z,44.17
2023-01-20T03:25:56.881Z,42.13
2023-01-20T03:43:10.864Z,39.23
2023-01-20T03:45:57.352Z,47.43
2023-01-20T03:48:40.103Z,50.50
2023-01-20T03:51:37.548Z,42.80
2023-01-20T03:54:09.662Z,46.60
2023-01-20T03:56:43.955Z,49.23
2023-01-20T03:59:14.608Z,53.60
2023-01-20T04:01:44.530Z,56.10
2023-01-20T04:04:18.345Z,56.73
2023-01-20T04:06:48.078Z,53.17
2023-01-20T04:09:23.001Z,50.90
2023-01-20T04:11:50.806Z,64.13
2023-01-20T04:14:17.999Z,64.43
2023-01-20T04:16:57.345Z,55.77
2023-01-20T04:19:25.655Z,59.10
2023-01-20T04:22:05.451Z,58.30
2023-01-20T04:24:49.198Z,41.87
2023-01-20T04:27:16.444Z,57.33
2023-01-20T04:29:43.446Z,53.60
2023-01-20T04:32:12.451Z,54.97
2023-01-20T04:34:39.746Z,46.60
2023-01-20T04:37:06.984Z,50.27
2023-01-20T04:39:34.012Z,52.40
2023-01-20T04:42:01.216Z,47.00
2023-01-20T04:44:28.261Z,40.63
2023-01-20T04:46:59.605Z,53.73
2023-01-20T04:49:26.567Z,48.30
2023-01-20T04:51:53.847Z,43.27
2023-01-20T04:54:20.993Z,50.23
2023-01-20T04:56:49.201Z,46.87
2023-01-20T04:59:16.431Z,43.37
2023-01-20T05:01:43.728Z,50.50
2023-01-20T05:04:10.726Z,49.37
2023-01-20T05:06:37.747Z,46.70
2023-01-20T05:09:05.276Z,45.30
2023-01-20T05:11:32.232Z,49.97
2023-01-20T05:13:59.420Z,48.40
2023-01-20T05:16:31.890Z,41.97
2023-01-20T05:18:59.167Z,44.77
2023-01-20T05:21:26.221Z,43.90
2023-01-20T05:23:54.721Z,39.10
2023-01-20T05:26:24.226Z,49.47
2023-01-20T05:28:51.905Z,48.67
2023-01-20T05:31:19.105Z,40.33
2023-01-20T05:33:46.384Z,51.03
2023-01-20T05:36:13.403Z,41.83
2023-01-20T05:38:40.688Z,43.83
2023-01-20T05:41:09.289Z,41.87
2023-01-20T05:43:37.075Z,40.17
2023-01-20T05:46:05.210Z,50.80
2023-01-20T05:48:32.651Z,36.33
2023-01-20T05:50:59.719Z,36.90
2023-01-20T05:53:27.027Z,46.33
2023-01-20T05:56:01.817Z,32.63
2023-01-20T05:58:29.459Z,37.40
2023-01-20T06:01:04.893Z,38.07
2023-01-20T06:03:32.256Z,34.63
2023-01-20T06:06:04.177Z,39.43
2023-01-20T06:08:31.513Z,34.37
2023-01-20T06:10:58.762Z,42.53
2023-01-20T06:13:26.326Z,39.90
2023-01-20T06:15:54.571Z,36.33
2023-01-20T06:18:22.854Z,37.90
2023-01-20T06:20:49.939Z,41.13
2023-01-20T06:23:17.975Z,44.63
2023-01-20T06:25:44.902Z,39.47
2023-01-20T06:28:12.134Z,47.37
2023-01-20T06:30:41.207Z,45.90
2023-01-20T06:33:10.805Z,46.47
2023-01-20T06:35:38.262Z,41.63
2023-01-20T06:38:05.511Z,38.83
2023-01-20T06:40:32.798Z,41.80
2023-01-20T06:43:00.114Z,39.10
2023-01-20T06:45:27.137Z,40.17
2023-01-20T06:47:54.394Z,49.33
2023-01-20T06:50:21.408Z,36.27
2023-01-20T06:52:48.604Z,43.60
2023-01-20T06:55:15.949Z,39.67
2023-01-20T06:57:43.326Z,40.47
2023-01-20T07:00:11.394Z,46.30
2023-01-20T07:02:38.634Z,42.03
2023-01-20T07:05:08.121Z,40.90
2023-01-20T07:07:35.503Z,41.07
2023-01-20T07:10:03.683Z,42.77
2023-01-20T07:12:30.921Z,46.13
2023-01-20T07:14:57.839Z,46.67
2023-01-20T07:17:25.121Z,45.43
2023-01-20T07:19:52.133Z,49.53
2023-01-20T07:22:19.389Z,41.57
2023-01-20T07:24:46.411Z,49.27
2023-01-20T07:27:15.125Z,53.30
2023-01-20T07:29:42.137Z,41.13
2023-01-20T07:32:09.476Z,42.43
2023-01-20T07:34:36.476Z,43.27
2023-01-20T07:37:03.736Z,48.37
2023-01-20T07:39:30.780Z,41.67
2023-01-20T07:41:57.978Z,45.20
2023-01-20T07:44:25.251Z,47.10
2023-01-20T07:46:52.640Z,44.63
2023-01-20T07:49:19.568Z,44.40
2023-01-20T07:51:46.791Z,42.90
2023-01-20T07:54:13.750Z,36.90
2023-01-20T07:56:41.370Z,41.80
2023-01-20T07:59:10.319Z,45.27
2023-01-20T08:01:37.682Z,46.40
2023-01-20T08:04:04.783Z,50.23
2023-01-20T08:06:32.030Z,43.03
2023-01-20T08:09:02.797Z,50.30
2023-01-20T08:11:32.210Z,46.50
2023-01-20T08:13:59.208Z,46.60
2023-01-20T08:16:26.439Z,43.50
2023-01-20T08:18:54.932Z,43.80
2023-01-20T08:21:24.888Z,43.87
2023-01-20T08:23:52.339Z,41.00
2023-01-20T08:26:19.717Z,40.13
2023-01-20T08:28:47.269Z,50.43
2023-01-20T08:31:18.181Z,41.80
2023-01-20T08:33:45.990Z,36.57
2023-01-20T08:36:19.686Z,48.87
2023-01-20T08:38:47.742Z,41.77
2023-01-20T08:41:19.153Z,76.17
2023-01-20T08:43:46.589Z,53.50
2023-01-20T08:46:16.782Z,35.33
2023-01-20T08:48:44.324Z,44.40
2023-01-20T08:51:15.975Z,45.53
2023-01-20T08:53:43.448Z,39.43
2023-01-20T08:56:11.479Z,40.20
2023-01-20T08:58:39.055Z,41.60
2023-01-20T09:01:10.581Z,35.50
2023-01-20T09:03:37.664Z,40.13
2023-01-20T09:06:06.696Z,34.50
2023-01-20T09:08:34.283Z,34.03
2023-01-20T09:11:07.296Z,37.60
2023-01-20T09:13:34.599Z,40.97
2023-01-20T09:16:02.213Z,34.90
2023-01-20T09:18:29.826Z,31.37
2023-01-20T09:21:00.698Z,36.40
2023-01-20T09:23:28.270Z,34.23
2023-01-20T09:25:58.920Z,25.70
2023-01-20T09:28:26.037Z,29.87
2023-01-20T09:31:04.639Z,32.17
2023-01-20T09:33:35.819Z,43.60
2023-01-20T09:36:04.767Z,29.97
2023-01-20T09:39:04.293Z,31.80
2023-01-20T09:41:52.376Z,31.97
2023-01-20T09:44:30.916Z,30.73
2023-01-20T09:47:21.895Z,34.27
2023-01-20T09:50:41.228Z,30.50
2023-01-20T09:53:30.916Z,26.57
2023-01-20T09:56:08.649Z,36.07
2023-01-20T09:58:46.372Z,28.90
2023-01-20T10:01:21.764Z,31.20
2023-01-20T10:04:00.529Z,31.53
2023-01-20T10:06:36.933Z,34.10
2023-01-20T10:09:12.537Z,27.77
2023-01-20T10:11:43.530Z,32.23
2023-01-20T10:14:15.351Z,38.17
2023-01-20T10:16:57.879Z,35.77
2023-01-20T10:19:58.881Z,31.73
2023-01-20T10:22:53.236Z,33.20
2023-01-20T10:25:28.705Z,39.17
2023-01-20T10:28:28.225Z,35.77
2023-01-20T10:31:00.837Z,34.23
2023-01-20T10:33:30.384Z,37.90
2023-01-20T10:35:59.763Z,30.73
2023-01-20T10:38:38.648Z,35.33
2023-01-20T10:41:32.072Z,36.23
2023-01-20T10:44:00.123Z,30.40
2023-01-20T10:46:38.999Z,28.83
2023-01-20T10:49:14.523Z,34.23
2023-01-20T10:51:44.264Z,29.03
2023-01-20T10:54:28.456Z,29.40
2023-01-20T10:56:59.041Z,34.53
2023-01-20T10:59:31.516Z,33.67
2023-01-20T11:02:11.982Z,34.83
2023-01-20T11:04:39.754Z,28.67
2023-01-20T11:07:16.090Z,28.67
2023-01-20T11:09:43.295Z,29.73
2023-01-20T11:12:20.301Z,35.37
2023-01-20T11:14:48.224Z,35.03
2023-01-20T11:17:18.117Z,60.70
2023-01-20T11:19:57.263Z,27.83
2023-01-20T11:22:34.349Z,29.77
2023-01-20T11:25:04.185Z,31.60
2023-01-20T11:27:46.092Z,31.13
2023-01-20T11:30:33.951Z,30.17
2023-01-20T11:33:30.750Z,25.57
2023-01-20T11:36:05.145Z,26.80
2023-01-20T11:38:41.615Z,29.77
2023-01-20T11:41:20.356Z,24.10
2023-01-20T11:43:49.444Z,27.60
2023-01-20T11:46:16.535Z,31.93
2023-01-20T11:48:43.946Z,29.80
2023-01-20T11:51:28.291Z,31.03
2023-01-20T11:54:13.712Z,28.07
2023-01-20T11:56:42.876Z,29.90
2023-01-20T11:59:24.397Z,33.10
2023-01-20T12:02:05.282Z,27.03
2023-01-20T12:04:47.398Z,32.40
2023-01-20T12:07:21.168Z,29.53
2023-01-20T12:09:53.383Z,33.67
2023-01-20T12:12:29.313Z,31.70
2023-01-20T12:15:06.718Z,26.63
2023-01-20T12:17:49.009Z,28.63
2023-01-20T12:20:54.050Z,29.20
2023-01-20T12:23:49.872Z,30.77
2023-01-20T12:26:19.954Z,36.37
2023-01-20T12:29:07.995Z,35.73
2023-01-20T12:31:38.778Z,36.47
2023-01-20T12:34:13.178Z,33.73
2023-01-20T12:36:43.491Z,41.90
2023-01-20T12:39:22.571Z,40.60
2023-01-20T12:42:21.296Z,45.27
2023-01-20T12:44:51.040Z,43.97
2023-01-20T12:47:40.252Z,48.70
2023-01-20T12:50:29.064Z,38.57
2023-01-20T12:53:03.499Z,30.93
2023-01-20T12:55:49.124Z,35.17
2023-01-20T12:58:23.639Z,29.77
2023-01-20T13:01:07.730Z,29.40
2023-01-20T13:03:59.893Z,25.03
2023-01-20T13:07:02.164Z,23.93
2023-01-20T13:09:38.693Z,22.60
2023-01-20T13:12:24.685Z,25.20
2023-01-20T13:15:19.874Z,28.07
2023-01-20T13:17:49.840Z,23.27
2023-01-20T13:20:27.490Z,24.83
2023-01-20T13:22:56.528Z,19.63
2023-01-20T13:25:24.701Z,22.33
2023-01-20T13:27:54.487Z,23.93
2023-01-20T13:30:40.230Z,20.73
2023-01-20T13:33:36.498Z,22.50
2023-01-20T13:36:19.265Z,20.27
2023-01-20T13:38:48.486Z,22.73
2023-01-20T13:41:50.985Z,17.90
2023-01-20T13:44:35.341Z,21.07
2023-01-20T13:47:04.446Z,18.83
2023-01-20T13:49:50.798Z,20.00
2023-01-20T13:52:54.947Z,20.00
2023-01-20T13:55:50.845Z,21.87
2023-01-20T13:58:26.821Z,18.13
2023-01-20T14:00:56.506Z,19.17
2023-01-20T14:03:23.777Z,17.43
2023-01-20T14:06:12.306Z,18.37
2023-01-20T14:08:51.101Z,19.97
2023-01-20T14:11:26.186Z,19.97
2023-01-20T14:14:27.015Z,16.93
2023-01-20T14:17:03.609Z,15.37
2023-01-20T14:19:33.903Z,18.20
2023-01-20T14:22:26.779Z,22.93
2023-01-20T14:24:57.473Z,21.47
2023-01-20T14:27:37.957Z,20.80
2023-01-20T14:30:18.898Z,22.13
2023-01-20T14:32:46.299Z,23.57
2023-01-20T14:35:21.129Z,20.53
2023-01-20T14:37:51.616Z,21.80
2023-01-20T14:40:31.410Z,23.90
2023-01-20T14:42:59.399Z,25.73
2023-01-20T14:45:29.263Z,21.80
2023-01-20T14:47:59.023Z,26.63
2023-01-20T14:50:27.009Z,25.03
2023-01-20T14:52:54.549Z,22.73
2023-01-20T14:55:27.763Z,22.27
2023-01-20T14:57:55.132Z,32.47
2023-01-20T15:00:22.655Z,22.23
2023-01-20T15:03:15.504Z,23.93
2023-01-20T15:06:00.251Z,24.40
2023-01-20T15:08:33.389Z,26.33
2023-01-20T15:11:18.954Z,31.50
2023-01-20T15:13:55.172Z,29.90
2023-01-20T15:16:25.237Z,27.00
2023-01-20T15:19:14.562Z,29.37
2023-01-20T15:21:45.818Z,27.40
2023-01-20T15:24:13.873Z,28.70
2023-01-20T15:26:42.409Z,32.77
2023-01-20T15:29:29.548Z,30.37
2023-01-20T15:31:59.269Z,29.83
2023-01-20T15:34:27.496Z,30.73
2023-01-20T15:36:55.807Z,31.00
2023-01-20T15:39:30.693Z,33.17
2023-01-20T15:41:58.568Z,28.30
2023-01-20T15:44:26.768Z,37.50
2023-01-20T15:46:57.253Z,33.23
2023-01-20T15:49:25.333Z,31.20
2023-01-20T15:51:53.198Z,30.97
2023-01-20T15:54:20.151Z,24.17
2023-01-20T15:56:47.358Z,27.63
2023-01-20T15:59:22.405Z,29.40
2023-01-20T16:01:50.622Z,28.27
2023-01-20T16:04:18.050Z,28.63
2023-01-20T16:06:45.555Z,25.97
2023-01-20T16:09:25.447Z,27.43
2023-01-20T16:11:53.575Z,22.27
2023-01-20T16:14:20.561Z,23.13
2023-01-20T16:16:47.799Z,26.60
2023-01-20T16:19:15.484Z,20.53
2023-01-20T16:21:45.384Z,24.53
2023-01-20T16:24:12.830Z,23.77
2023-01-20T16:26:46.933Z,21.33
2023-01-20T16:29:14.450Z,20.07
2023-01-20T16:31:41.731Z,20.20
2023-01-20T16:34:08.687Z,23.30
2023-01-20T16:36:35.987Z,25.17
2023-01-20T16:39:02.960Z,26.30
2023-01-20T16:41:33.349Z,28.63
2023-01-20T16:44:00.339Z,30.53
2023-01-20T16:46:29.650Z,25.53
2023-01-20T16:49:01.843Z,30.73
2023-01-20T16:51:30.477Z,33.53
2023-01-20T16:53:58.288Z,29.93
2023-01-20T16:56:28.062Z,25.70
2023-01-20T16:58:59.558Z,24.20
2023-01-20T17:01:27.714Z,27.23
2023-01-20T17:03:57.595Z,25.13
2023-01-20T17:06:27.096Z,26.87
2023-01-20T17:08:56.020Z,25.27
2023-01-20T17:11:26.086Z,25.10
2023-01-20T17:13:55.045Z,21.93
2023-01-20T17:16:23.476Z,23.37
2023-01-20T17:18:51.598Z,20.80
2023-01-20T17:21:20.707Z,27.97
2023-01-20T17:24:01.478Z,21.73
2023-01-20T17:26:29.758Z,21.47
2023-01-20T17:29:04.254Z,24.87
2023-01-20T17:31:34.573Z,26.20
2023-01-20T17:34:01.731Z,23.43
2023-01-20T17:36:29.675Z,23.33
2023-01-20T17:38:57.990Z,21.97
2023-01-20T17:41:25.251Z,21.10
2023-01-20T17:43:52.198Z,24.17
2023-01-20T17:46:25.493Z,19.03
2023-01-20T17:48:52.442Z,22.47
2023-01-20T17:51:22.392Z,20.83
2023-01-20T17:53:49.613Z,25.80
2023-01-20T17:56:18.316Z,24.03
2023-01-20T17:58:46.442Z,22.97
2023-01-20T18:01:16.431Z,19.87
2023-01-20T18:03:44.459Z,19.47
2023-01-20T18:06:13.959Z,23.03
2023-01-20T18:08:41.425Z,21.77
2023-01-20T18:11:15.196Z,20.20
2023-01-20T18:13:44.946Z,21.90
2023-01-20T18:16:14.007Z,19.67
2023-01-20T18:18:43.340Z,17.80
2023-01-20T18:21:19.280Z,21.10
2023-01-20T18:23:47.128Z,20.17
2023-01-20T18:26:16.496Z,19.33
2023-01-20T18:28:44.271Z,22.60
2023-01-20T18:31:14.472Z,18.87
2023-01-20T18:33:44.595Z,21.50
2023-01-20T18:36:17.930Z,23.63
2023-01-20T18:38:50.123Z,20.87
2023-01-20T18:41:17.467Z,18.33
2023-01-20T18:43:44.528Z,22.07
2023-01-20T18:46:11.872Z,17.50
2023-01-20T18:48:46.781Z,19.63
2023-01-20T18:51:15.905Z,20.07
2023-01-20T18:53:44.960Z,18.17
2023-01-20T18:56:14.956Z,18.33
2023-01-20T18:58:47.050Z,20.60
2023-01-20T19:01:18.687Z,18.97
2023-01-20T19:03:46.657Z,15.17
2023-01-20T19:06:20.224Z,21.23
2023-01-20T19:08:50.533Z,17.77
2023-01-20T19:11:20.981Z,21.50
2023-01-20T19:13:49.973Z,18.50
2023-01-20T19:16:19.203Z,20.63
2023-01-20T19:18:54.831Z,16.43
2023-01-20T19:21:23.026Z,18.97
2023-01-20T19:23:51.632Z,15.40
2023-01-20T19:26:20.066Z,14.77
2023-01-20T19:28:49.525Z,18.67
2023-01-20T19:31:19.183Z,17.10
2023-01-20T19:33:46.952Z,13.77
2023-01-20T19:36:17.348Z,15.77
2023-01-20T19:38:44.398Z,16.20
2023-01-20T19:41:17.009Z,16.67
2023-01-20T19:43:45.002Z,16.63
2023-01-20T19:46:15.109Z,15.67
2023-01-20T19:48:42.312Z,13.00
2023-01-20T19:51:12.531Z,14.67
2023-01-20T19:53:40.675Z,15.20
2023-01-20T19:56:10.676Z,16.03
2023-01-20T19:58:38.746Z,16.13
2023-01-20T20:01:29.832Z,15.67
2023-01-20T20:03:58.530Z,15.30
2023-01-20T20:06:30.551Z,16.37
2023-01-20T20:09:12.836Z,16.50
2023-01-20T20:11:40.399Z,15.97
2023-01-20T20:14:10.428Z,19.37
2023-01-20T20:16:39.855Z,15.27
2023-01-20T20:19:08.627Z,16.87
2023-01-20T20:21:36.158Z,17.40
2023-01-20T20:24:05.549Z,14.60
2023-01-20T20:26:35.696Z,14.47
2023-01-20T20:29:05.105Z,15.97
2023-01-20T20:31:34.313Z,14.60
2023-01-20T20:34:02.515Z,14.77
2023-01-20T20:36:32.187Z,14.67
2023-01-20T20:39:00.282Z,14.90
2023-01-20T20:41:31.126Z,15.23
2023-01-20T20:43:59.734Z,15.83
2023-01-20T20:46:27.566Z,14.00
2023-01-20T20:48:56.271Z,15.27
2023-01-20T20:51:26.476Z,16.33
2023-01-20T20:53:55.416Z,14.37
2023-01-20T20:56:24.594Z,16.07
2023-01-20T20:59:01.428Z,13.83
2023-01-20T21:01:31.313Z,12.57
2023-01-20T21:04:00.417Z,13.40
2023-01-20T21:06:28.906Z,12.27
2023-01-20T21:08:56.252Z,14.97
2023-01-20T21:11:24.955Z,14.10
2023-01-20T21:13:52.735Z,15.67
2023-01-20T21:16:22.800Z,14.70
2023-01-20T21:18:51.916Z,15.23
2023-01-20T21:21:19.667Z,12.93
2023-01-20T21:23:51.371Z,13.57
2023-01-20T21:26:19.306Z,13.67
2023-01-20T21:28:49.230Z,13.83
2023-01-20T21:31:21.020Z,13.97
2023-01-20T21:33:53.667Z,12.33
2023-01-20T21:36:22.113Z,11.83
2023-01-20T21:38:49.427Z,15.23
2023-01-20T21:41:17.940Z,12.60
2023-01-20T21:44:05.256Z,12.73
2023-01-20T21:46:38.274Z,16.80
2023-01-20T21:49:25.537Z,16.73
2023-01-20T21:52:13.556Z,14.60
2023-01-20T21:54:41.427Z,17.23
2023-01-20T21:57:09.235Z,16.03
2023-01-20T21:59:36.801Z,13.47
2023-01-20T22:02:04.116Z,16.77
2023-01-20T22:04:31.627Z,17.97
2023-01-20T22:06:58.977Z,15.23
2023-01-20T22:09:25.946Z,17.97
2023-01-20T22:11:53.212Z,17.63
2023-01-20T22:14:20.215Z,16.13
2023-01-20T22:16:47.430Z,15.03
2023-01-20T22:19:14.802Z,14.20
2023-01-20T22:21:42.172Z,15.47
2023-01-20T22:24:09.971Z,13.97
2023-01-20T22:26:37.392Z,15.07
2023-01-20T22:29:04.456Z,14.77
2023-01-20T22:31:32.105Z,16.13
2023-01-20T22:34:04.173Z,13.73
2023-01-20T22:36:32.639Z,15.00
2023-01-20T22:38:59.883Z,15.40
2023-01-20T22:41:27.155Z,16.33
2023-01-20T22:43:55.385Z,13.57
2023-01-20T22:46:27.797Z,12.37
2023-01-20T22:48:57.069Z,14.13
2023-01-20T22:51:27.809Z,14.77
2023-01-20T22:53:56.628Z,15.57
2023-01-20T22:56:26.283Z,14.03
2023-01-20T22:58:53.336Z,13.10
2023-01-20T23:01:23.360Z,15.03
2023-01-20T23:03:55.413Z,13.93
2023-01-20T23:06:23.690Z,14.07
2023-01-20T23:08:51.236Z,16.37
2023-01-20T23:11:20.437Z,14.50
2023-01-20T23:13:47.776Z,15.00
2023-01-20T23:16:17.683Z,16.40
2023-01-20T23:18:46.092Z,16.67
2023-01-20T23:21:13.886Z,17.43
2023-01-20T23:23:40.865Z,18.63
2023-01-20T23:26:15.297Z,17.50
2023-01-20T23:28:43.683Z,16.47
2023-01-20T23:31:13.263Z,16.10
2023-01-20T23:33:43.668Z,15.93
2023-01-20T23:36:14.911Z,18.47
2023-01-20T23:38:43.136Z,16.93
2023-01-20T23:41:11.711Z,19.07
2023-01-20T23:43:38.643Z,21.37
2023-01-20T23:46:06.858Z,23.50
2023-01-20T23:48:34.370Z,20.23
2023-01-20T23:51:02.660Z,20.13
2023-01-20T23:53:32.374Z,23.03
2023-01-20T23:56:06.084Z,23.37
2023-01-20T23:58:33.464Z,23.10
